Terminal Aerodrome Forecast
Issued by NWS

Home | Current Version | Previous Version | Text Only | Print | Product List | Glossary On
Versions: 1 2 3 4 5 6 7 8 9 10 11 12 13 14 15 16 17 18 19 20 21 22 23 24 25 26 27 28 29 30 31 32 33
000
FTUS41 KBUF 210200 AAB
TAFJHW
TAF AMD
KJHW 210259Z 2103/2124 18008KT 6SM -SHRA OVC008
     FM210500 21005KT 6SM -SHRA OVC004
     FM211000 23006KT 2SM SHRA OVC003
     FM211900 32008KT 3SM SHRA OVC007
     FM212300 01010KT 4SM -SHRA OVC007
      AMD LTD TO CLD VIS AND WIND=

USA.gov is the U.S. government's official web portal to all federal, state and local government web resources and services.